sensor_id;sensor_type;location;lat;lon;timestamp;temperature;humidity
39621;DHT22;25309;48.686;9.170;2023-04-01T03:02:39;7.00;99.90
39621;DHT22;25309;48.686;9.170;2023-04-01T03:05:07;7.00;99.90
39621;DHT22;25309;48.686;9.170;2023-04-01T03:07:34;7.00;99.90
39621;DHT22;25309;48.686;9.170;2023-04-01T03:10:01;7.10;99.90
39621;DHT22;25309;48.686;9.170;2023-04-01T03:12:28;7.10;99.90
39621;DHT22;25309;48.686;9.170;2023-04-01T03:14:56;7.10;99.90
39621;DHT22;25309;48.686;9.170;2023-04-01T03:17:38;7.10;99.90
39621;DHT22;25309;48.686;9.170;2023-04-01T03:20:06;7.20;99.90
39621;DHT22;25309;48.686;9.170;2023-04-01T03:22:35;7.20;99.90
39621;DHT22;25309;48.686;9.170;2023-04-01T03:25:03;7.20;99.90
39621;DHT22;25309;48.686;9.170;2023-04-01T03:27:31;7.20;99.90
39621;DHT22;25309;48.686;9.170;2023-04-01T03:29:58;7.20;99.90
39621;DHT22;25309;48.686;9.170;2023-04-01T03:32:26;7.20;99.90
39621;DHT22;25309;48.686;9.170;2023-04-01T03:34:55;7.20;99.90
39621;DHT22;25309;48.686;9.170;2023-04-01T03:37:22;7.20;99.90
39621;DHT22;25309;48.686;9.170;2023-04-01T03:39:50;7.30;99.90
39621;DHT22;25309;48.686;9.170;2023-04-01T03:42:17;7.20;99.90
39621;DHT22;25309;48.686;9.170;2023-04-01T03:44:44;7.20;99.90
39621;DHT22;25309;48.686;9.170;2023-04-01T03:47:12;7.30;99.90
39621;DHT22;25309;48.686;9.170;2023-04-01T03:49:38;7.30;99.90
39621;DHT22;25309;48.686;9.170;2023-04-01T03:52:10;7.30;99.90
39621;DHT22;25309;48.686;9.170;2023-04-01T03:54:37;7.30;99.90
39621;DHT22;25309;48.686;9.170;2023-04-01T03:57:04;7.30;99.90
39621;DHT22;25309;48.686;9.170;2023-04-01T03:59:32;7.20;99.90
39621;DHT22;25309;48.686;9.170;2023-04-01T04:01:59;7.20;99.90
39621;DHT22;25309;48.686;9.170;2023-04-01T04:04:27;7.20;99.90
39621;DHT22;25309;48.686;9.170;2023-04-01T04:06:54;7.20;99.90
39621;DHT22;25309;48.686;9.170;2023-04-01T04:09:24;7.10;99.90
39621;DHT22;25309;48.686;9.170;2023-04-01T04:11:51;7.10;99.90
39621;DHT22;25309;48.686;9.170;2023-04-01T04:14:17;7.00;99.90
39621;DHT22;25309;48.686;9.170;2023-04-01T04:16:45;6.90;99.90
39621;DHT22;25309;48.686;9.170;2023-04-01T04:19:12;6.90;99.90
39621;DHT22;25309;48.686;9.170;2023-04-01T04:21:39;6.90;99.90
39621;DHT22;25309;48.686;9.170;2023-04-01T04:24:07;6.90;99.90
39621;DHT22;25309;48.686;9.170;2023-04-01T04:27:02;6.90;99.90
39621;DHT22;25309;48.686;9.170;2023-04-01T04:29:29;6.90;99.90
39621;DHT22;25309;48.686;9.170;2023-04-01T04:31:56;6.90;99.90
39621;DHT22;25309;48.686;9.170;2023-04-01T04:34:24;6.90;99.90
39621;DHT22;25309;48.686;9.170;2023-04-01T04:36:51;6.90;99.90
39621;DHT22;25309;48.686;9.170;2023-04-01T04:39:19;6.80;99.90
39621;DHT22;25309;48.686;9.170;2023-04-01T04:41:46;6.80;99.90
39621;DHT22;25309;48.686;9.170;2023-04-01T04:44:14;6.90;99.90
39621;DHT22;25309;48.686;9.170;2023-04-01T04:46:41;6.90;99.90
39621;DHT22;25309;48.686;9.170;2023-04-01T04:49:13;6.90;99.90
39621;DHT22;25309;48.686;9.170;2023-04-01T04:51:40;6.90;99.90
39621;DHT22;25309;48.686;9.170;2023-04-01T04:54:07;7.00;99.90
39621;DHT22;25309;48.686;9.170;2023-04-01T04:56:55;7.00;99.90
39621;DHT22;25309;48.686;9.170;2023-04-01T04:59:25;7.00;99.90
39621;DHT22;25309;48.686;9.170;2023-04-01T05:02:01;7.00;99.90
39621;DHT22;25309;48.686;9.170;2023-04-01T05:04:28;7.00;99.90
39621;DHT22;25309;48.686;9.170;2023-04-01T05:06:55;7.00;99.90
39621;DHT22;25309;48.686;9.170;2023-04-01T05:09:23;7.00;99.90
39621;DHT22;25309;48.686;9.170;2023-04-01T05:11:50;6.90;99.90
39621;DHT22;25309;48.686;9.170;2023-04-01T05:14:18;6.90;99.90
39621;DHT22;25309;48.686;9.170;2023-04-01T05:16:56;6.90;99.90
39621;DHT22;25309;48.686;9.170;2023-04-01T05:19:23;6.90;99.90
39621;DHT22;25309;48.686;9.170;2023-04-01T05:21:50;6.90;99.90
39621;DHT22;25309;48.686;9.170;2023-04-01T05:24:17;6.90;99.90
39621;DHT22;25309;48.686;9.170;2023-04-01T05:26:45;7.00;99.90
39621;DHT22;25309;48.686;9.170;2023-04-01T05:29:12;7.00;99.90
39621;DHT22;25309;48.686;9.170;2023-04-01T05:31:40;7.10;99.90
39621;DHT22;25309;48.686;9.170;2023-04-01T05:34:08;7.10;99.90
39621;DHT22;25309;48.686;9.170;2023-04-01T05:36:35;7.20;99.90
39621;DHT22;25309;48.686;9.170;2023-04-01T05:39:03;7.20;99.90
39621;DHT22;25309;48.686;9.170;2023-04-01T05:41:30;7.20;99.90
39621;DHT22;25309;48.686;9.170;2023-04-01T05:43:57;7.30;99.90
39621;DHT22;25309;48.686;9.170;2023-04-01T05:46:47;7.40;99.90
39621;DHT22;25309;48.686;9.170;2023-04-01T05:49:19;7.40;99.90
39621;DHT22;25309;48.686;9.170;2023-04-01T05:51:47;7.50;99.90
39621;DHT22;25309;48.686;9.170;2023-04-01T05:54:14;7.50;99.90
39621;DHT22;25309;48.686;9.170;2023-04-01T05:56:43;7.50;99.90
39621;DHT22;25309;48.686;9.170;2023-04-01T05:59:12;7.50;99.90
39621;DHT22;25309;48.686;9.170;2023-04-01T06:01:40;7.60;99.90
39621;DHT22;25309;48.686;9.170;2023-04-01T06:04:11;7.70;99.90
39621;DHT22;25309;48.686;9.170;2023-04-01T06:06:41;7.70;99.90
39621;DHT22;25309;48.686;9.170;2023-04-01T06:09:15;7.70;99.90
39621;DHT22;25309;48.686;9.170;2023-04-01T06:12:20;7.80;99.90
39621;DHT22;25309;48.686;9.170;2023-04-01T06:15:00;7.90;99.90
39621;DHT22;25309;48.686;9.170;2023-04-01T06:17:40;7.90;99.90
39621;DHT22;25309;48.686;9.170;2023-04-01T06:20:17;7.90;99.90
39621;DHT22;25309;48.686;9.170;2023-04-01T06:23:01;8.00;99.90
39621;DHT22;25309;48.686;9.170;2023-04-01T06:25:45;8.10;99.90
39621;DHT22;25309;48.686;9.170;2023-04-01T06:28:38;8.10;99.90
39621;DHT22;25309;48.686;9.170;2023-04-01T06:31:17;8.10;99.90
39621;DHT22;25309;48.686;9.170;2023-04-01T06:34:04;8.10;99.90
39621;DHT22;25309;48.686;9.170;2023-04-01T06:36:47;8.20;99.90
39621;DHT22;25309;48.686;9.170;2023-04-01T06:39:42;8.20;99.90
39621;DHT22;25309;48.686;9.170;2023-04-01T06:42:19;8.30;99.90
39621;DHT22;25309;48.686;9.170;2023-04-01T06:45:01;8.30;99.90
39621;DHT22;25309;48.686;9.170;2023-04-01T06:48:28;8.40;99.90
39621;DHT22;25309;48.686;9.170;2023-04-01T06:51:27;8.40;99.90
39621;DHT22;25309;48.686;9.170;2023-04-01T06:54:35;8.40;99.90
39621;DHT22;25309;48.686;9.170;2023-04-01T06:57:41;8.40;99.90
39621;DHT22;25309;48.686;9.170;2023-04-01T07:00:14;8.30;99.90
39621;DHT22;25309;48.686;9.170;2023-04-01T07:02:47;8.30;99.90
39621;DHT22;25309;48.686;9.170;2023-04-01T07:05:21;8.40;99.90
39621;DHT22;25309;48.686;9.170;2023-04-01T07:07:51;8.40;99.90
39621;DHT22;25309;48.686;9.170;2023-04-01T07:10:23;8.50;99.90
39621;DHT22;25309;48.686;9.170;2023-04-01T07:13:15;8.50;99.90
39621;DHT22;25309;48.686;9.170;2023-04-01T07:16:03;8.50;99.90
39621;DHT22;25309;48.686;9.170;2023-04-01T07:18:38;8.50;99.90
39621;DHT22;25309;48.686;9.170;2023-04-01T07:21:13;8.50;99.90
39621;DHT22;25309;48.686;9.170;2023-04-01T07:23:44;8.50;99.90
39621;DHT22;25309;48.686;9.170;2023-04-01T07:26:47;8.50;99.90
39621;DHT22;25309;48.686;9.170;2023-04-01T07:29:20;8.50;99.90
39621;DHT22;25309;48.686;9.170;2023-04-01T07:34:43;8.40;99.90
39621;DHT22;25309;48.686;9.170;2023-04-01T07:37:16;8.40;99.90
39621;DHT22;25309;48.686;9.170;2023-04-01T07:39:49;8.50;99.90
39621;DHT22;25309;48.686;9.170;2023-04-01T07:42:37;8.50;99.90
39621;DHT22;25309;48.686;9.170;2023-04-01T07:45:14;8.40;99.90
39621;DHT22;25309;48.686;9.170;2023-04-01T07:47:55;8.50;99.90
39621;DHT22;25309;48.686;9.170;2023-04-01T07:50:28;8.50;99.90
39621;DHT22;25309;48.686;9.170;2023-04-01T07:53:06;8.50;99.90
39621;DHT22;25309;48.686;9.170;2023-04-01T07:55:39;8.50;99.90
39621;DHT22;25309;48.686;9.170;2023-04-01T07:58:15;8.60;99.90
39621;DHT22;25309;48.686;9.170;2023-04-01T08:00:50;8.60;99.90
39621;DHT22;25309;48.686;9.170;2023-04-01T08:03:38;8.60;99.90
39621;DHT22;25309;48.686;9.170;2023-04-01T08:06:15;8.60;99.90
39621;DHT22;25309;48.686;9.170;2023-04-01T08:08:54;8.50;99.90
39621;DHT22;25309;48.686;9.170;2023-04-01T08:11:53;8.50;99.90
39621;DHT22;25309;48.686;9.170;2023-04-01T08:14:50;8.50;99.90
39621;DHT22;25309;48.686;9.170;2023-04-01T08:17:45;8.50;99.90
39621;DHT22;25309;48.686;9.170;2023-04-01T08:20:28;8.40;99.90
39621;DHT22;25309;48.686;9.170;2023-04-01T08:23:00;8.30;99.90
39621;DHT22;25309;48.686;9.170;2023-04-01T08:25:34;8.20;99.90
39621;DHT22;25309;48.686;9.170;2023-04-01T08:28:10;8.20;99.90
39621;DHT22;25309;48.686;9.170;2023-04-01T08:30:43;8.20;99.90
39621;DHT22;25309;48.686;9.170;2023-04-01T08:33:18;8.20;99.90
39621;DHT22;25309;48.686;9.170;2023-04-01T08:35:53;8.20;99.90
39621;DHT22;25309;48.686;9.170;2023-04-01T08:38:25;8.30;99.90
39621;DHT22;25309;48.686;9.170;2023-04-01T08:41:19;8.30;99.90
39621;DHT22;25309;48.686;9.170;2023-04-01T08:44:31;8.10;99.90
39621;DHT22;25309;48.686;9.170;2023-04-01T08:47:19;8.00;99.90
39621;DHT22;25309;48.686;9.170;2023-04-01T08:50:16;7.90;99.90
39621;DHT22;25309;48.686;9.170;2023-04-01T08:53:12;7.90;99.90
39621;DHT22;25309;48.686;9.170;2023-04-01T08:55:51;7.70;99.90
39621;DHT22;25309;48.686;9.170;2023-04-01T08:58:39;7.70;99.90
39621;DHT22;25309;48.686;9.170;2023-04-01T09:01:26;7.50;99.90
39621;DHT22;25309;48.686;9.170;2023-04-01T09:04:18;7.40;99.90
39621;DHT22;25309;48.686;9.170;2023-04-01T09:07:04;7.30;99.90
39621;DHT22;25309;48.686;9.170;2023-04-01T09:12:39;7.30;99.90
39621;DHT22;25309;48.686;9.170;2023-04-01T09:18:15;7.70;99.90
39621;DHT22;25309;48.686;9.170;2023-04-01T09:21:09;7.90;99.90
39621;DHT22;25309;48.686;9.170;2023-04-01T09:24:19;8.20;99.90
39621;DHT22;25309;48.686;9.170;2023-04-01T09:27:03;8.30;99.90
39621;DHT22;25309;48.686;9.170;2023-04-01T09:29:45;8.20;99.90
39621;DHT22;25309;48.686;9.170;2023-04-01T09:32:33;8.50;99.90
39621;DHT22;25309;48.686;9.170;2023-04-01T09:35:21;8.60;99.90
39621;DHT22;25309;48.686;9.170;2023-04-01T09:37:56;9.00;99.90
39621;DHT22;25309;48.686;9.170;2023-04-01T09:40:33;9.00;99.90
39621;DHT22;25309;48.686;9.170;2023-04-01T09:43:28;9.00;99.90
39621;DHT22;25309;48.686;9.170;2023-04-01T09:46:14;8.80;99.90
39621;DHT22;25309;48.686;9.170;2023-04-01T09:49:00;8.70;99.90
39621;DHT22;25309;48.686;9.170;2023-04-01T09:51:37;8.60;99.90
39621;DHT22;25309;48.686;9.170;2023-04-01T09:54:17;8.50;99.90
39621;DHT22;25309;48.686;9.170;2023-04-01T09:57:11;8.40;99.90
39621;DHT22;25309;48.686;9.170;2023-04-01T10:00:32;8.30;99.90
39621;DHT22;25309;48.686;9.170;2023-04-01T10:03:37;8.20;99.90
39621;DHT22;25309;48.686;9.170;2023-04-01T10:12:40;8.10;99.90
39621;DHT22;25309;48.686;9.170;2023-04-01T10:15:36;8.10;99.90
39621;DHT22;25309;48.686;9.170;2023-04-01T10:18:27;8.10;99.90
39621;DHT22;25309;48.686;9.170;2023-04-01T10:24:27;8.20;99.90
39621;DHT22;25309;48.686;9.170;2023-04-01T10:27:20;8.20;99.90
39621;DHT22;25309;48.686;9.170;2023-04-01T10:30:19;8.40;99.90
39621;DHT22;25309;48.686;9.170;2023-04-01T10:39:33;8.90;99.90
39621;DHT22;25309;48.686;9.170;2023-04-01T10:42:40;9.00;99.90
39621;DHT22;25309;48.686;9.170;2023-04-01T10:49:02;9.50;99.90
39621;DHT22;25309;48.686;9.170;2023-04-01T10:52:04;9.70;99.90
39621;DHT22;25309;48.686;9.170;2023-04-01T10:55:14;10.20;99.90
39621;DHT22;25309;48.686;9.170;2023-04-01T10:58:20;10.30;99.90
39621;DHT22;25309;48.686;9.170;2023-04-01T11:01:27;10.40;99.90
39621;DHT22;25309;48.686;9.170;2023-04-01T11:05:05;10.50;99.90
39621;DHT22;25309;48.686;9.170;2023-04-01T11:08:13;10.50;99.90
39621;DHT22;25309;48.686;9.170;2023-04-01T11:14:13;10.40;99.90
39621;DHT22;25309;48.686;9.170;2023-04-01T11:17:07;10.40;99.90
39621;DHT22;25309;48.686;9.170;2023-04-01T11:19:57;10.50;99.90
39621;DHT22;25309;48.686;9.170;2023-04-01T11:22:51;10.60;99.90
39621;DHT22;25309;48.686;9.170;2023-04-01T11:29:19;10.60;99.90
39621;DHT22;25309;48.686;9.170;2023-04-01T11:31:58;10.70;99.90
39621;DHT22;25309;48.686;9.170;2023-04-01T11:34:53;10.60;99.90
39621;DHT22;25309;48.686;9.170;2023-04-01T11:37:29;10.80;99.90
39621;DHT22;25309;48.686;9.170;2023-04-01T11:40:28;10.80;99.90
39621;DHT22;25309;48.686;9.170;2023-04-01T11:43:36;10.80;99.90
39621;DHT22;25309;48.686;9.170;2023-04-01T11:46:25;10.90;99.90
39621;DHT22;25309;48.686;9.170;2023-04-01T11:49:06;10.90;99.90
39621;DHT22;25309;48.686;9.170;2023-04-01T11:52:02;11.10;99.90
39621;DHT22;25309;48.686;9.170;2023-04-01T11:54:42;11.10;99.90
39621;DHT22;25309;48.686;9.170;2023-04-01T11:57:37;11.20;99.90
39621;DHT22;25309;48.686;9.170;2023-04-01T12:00:39;11.10;99.90
39621;DHT22;25309;48.686;9.170;2023-04-01T12:03:30;11.10;99.90
39621;DHT22;25309;48.686;9.170;2023-04-01T12:06:05;11.00;99.90
39621;DHT22;25309;48.686;9.170;2023-04-01T12:08:44;11.10;99.90
39621;DHT22;25309;48.686;9.170;2023-04-01T12:11:17;11.20;99.90
39621;DHT22;25309;48.686;9.170;2023-04-01T12:13:52;11.40;99.90
39621;DHT22;25309;48.686;9.170;2023-04-01T12:16:29;11.50;99.90
39621;DHT22;25309;48.686;9.170;2023-04-01T12:19:10;11.50;99.90
39621;DHT22;25309;48.686;9.170;2023-04-01T12:21:44;11.60;99.90
39621;DHT22;25309;48.686;9.170;2023-04-01T12:24:35;11.50;99.90
39621;DHT22;25309;48.686;9.170;2023-04-01T12:27:12;11.50;99.90
39621;DHT22;25309;48.686;9.170;2023-04-01T12:29:53;11.60;99.90
39621;DHT22;25309;48.686;9.170;2023-04-01T12:32:31;11.70;99.90
39621;DHT22;25309;48.686;9.170;2023-04-01T12:35:24;11.90;99.90
39621;DHT22;25309;48.686;9.170;2023-04-01T12:38:04;11.50;99.90
39621;DHT22;25309;48.686;9.170;2023-04-01T12:40:46;11.10;99.90
39621;DHT22;25309;48.686;9.170;2023-04-01T12:43:27;10.60;99.90
39621;DHT22;25309;48.686;9.170;2023-04-01T12:46:03;10.40;99.90
39621;DHT22;25309;48.686;9.170;2023-04-01T12:49:07;10.30;99.90
39621;DHT22;25309;48.686;9.170;2023-04-01T13:01:08;11.20;99.90
39621;DHT22;25309;48.686;9.170;2023-04-01T13:03:48;11.50;99.90
39621;DHT22;25309;48.686;9.170;2023-04-01T13:06:31;11.80;99.90
39621;DHT22;25309;48.686;9.170;2023-04-01T13:09:11;12.00;99.90
39621;DHT22;25309;48.686;9.170;2023-04-01T13:11:54;12.00;99.90
39621;DHT22;25309;48.686;9.170;2023-04-01T13:14:45;12.20;99.90
39621;DHT22;25309;48.686;9.170;2023-04-01T13:17:19;12.20;99.90
39621;DHT22;25309;48.686;9.170;2023-04-01T13:19:53;12.30;99.90
39621;DHT22;25309;48.686;9.170;2023-04-01T13:22:41;12.40;99.90
39621;DHT22;25309;48.686;9.170;2023-04-01T13:25:17;12.60;99.90
39621;DHT22;25309;48.686;9.170;2023-04-01T13:27:49;12.50;99.90
39621;DHT22;25309;48.686;9.170;2023-04-01T13:30:24;12.50;99.90
39621;DHT22;25309;48.686;9.170;2023-04-01T13:33:00;12.40;99.90
39621;DHT22;25309;48.686;9.170;2023-04-01T13:35:38;12.30;99.90
39621;DHT22;25309;48.686;9.170;2023-04-01T13:41:11;11.90;99.90
39621;DHT22;25309;48.686;9.170;2023-04-01T13:43:45;11.80;99.90
39621;DHT22;25309;48.686;9.170;2023-04-01T13:46:36;11.80;99.90
39621;DHT22;25309;48.686;9.170;2023-04-01T13:49:26;11.70;99.90
39621;DHT22;25309;48.686;9.170;2023-04-01T13:52:06;11.60;99.90
39621;DHT22;25309;48.686;9.170;2023-04-01T13:54:56;11.60;99.90
39621;DHT22;25309;48.686;9.170;2023-04-01T13:57:47;11.70;99.90
39621;DHT22;25309;48.686;9.170;2023-04-01T14:00:45;11.60;99.90
39621;DHT22;25309;48.686;9.170;2023-04-01T14:03:27;11.60;99.90
39621;DHT22;25309;48.686;9.170;2023-04-01T14:06:19;11.50;99.90
39621;DHT22;25309;48.686;9.170;2023-04-01T14:09:10;11.50;99.90
39621;DHT22;25309;48.686;9.170;2023-04-01T14:11:45;11.50;99.90
39621;DHT22;25309;48.686;9.170;2023-04-01T14:14:24;11.50;99.90
39621;DHT22;25309;48.686;9.170;2023-04-01T14:17:09;11.40;99.90
39621;DHT22;25309;48.686;9.170;2023-04-01T14:20:00;11.20;99.90
39621;DHT22;25309;48.686;9.170;2023-04-01T14:22:37;11.30;99.90
39621;DHT22;25309;48.686;9.170;2023-04-01T14:25:29;11.20;99.90
39621;DHT22;25309;48.686;9.170;2023-04-01T14:28:09;11.20;99.90
39621;DHT22;25309;48.686;9.170;2023-04-01T14:30:46;11.30;99.90
39621;DHT22;25309;48.686;9.170;2023-04-01T14:33:26;11.40;99.90
39621;DHT22;25309;48.686;9.170;2023-04-01T14:36:19;11.40;99.90
39621;DHT22;25309;48.686;9.170;2023-04-01T14:38:58;11.40;99.90
39621;DHT22;25309;48.686;9.170;2023-04-01T14:41:35;11.40;99.90
39621;DHT22;25309;48.686;9.170;2023-04-01T14:44:27;11.30;99.90
39621;DHT22;25309;48.686;9.170;2023-04-01T14:47:28;11.30;99.90
39621;DHT22;25309;48.686;9.170;2023-04-01T14:50:05;11.40;99.90
39621;DHT22;25309;48.686;9.170;2023-04-01T14:52:38;11.20;99.90
39621;DHT22;25309;48.686;9.170;2023-04-01T14:55:20;11.30;99.90
39621;DHT22;25309;48.686;9.170;2023-04-01T14:58:07;11.20;99.90
39621;DHT22;25309;48.686;9.170;2023-04-01T15:00:47;11.20;99.90
39621;DHT22;25309;48.686;9.170;2023-04-01T15:03:20;11.20;99.90
39621;DHT22;25309;48.686;9.170;2023-04-01T15:05:52;11.20;99.90
39621;DHT22;25309;48.686;9.170;2023-04-01T15:08:25;11.20;99.90
39621;DHT22;25309;48.686;9.170;2023-04-01T15:17:02;10.90;99.90
39621;DHT22;25309;48.686;9.170;2023-04-01T15:19:42;10.90;99.90
39621;DHT22;25309;48.686;9.170;2023-04-01T15:22:33;10.90;99.90
39621;DHT22;25309;48.686;9.170;2023-04-01T15:25:25;10.80;99.90
39621;DHT22;25309;48.686;9.170;2023-04-01T15:28:00;10.90;99.90
39621;DHT22;25309;48.686;9.170;2023-04-01T15:30:32;10.80;99.90
39621;DHT22;25309;48.686;9.170;2023-04-01T15:33:28;10.70;99.90
39621;DHT22;25309;48.686;9.170;2023-04-01T15:36:03;10.70;99.90
39621;DHT22;25309;48.686;9.170;2023-04-01T15:38:36;10.70;99.90
39621;DHT22;25309;48.686;9.170;2023-04-01T15:41:14;10.70;99.90
39621;DHT22;25309;48.686;9.170;2023-04-01T15:43:43;10.70;99.90
39621;DHT22;25309;48.686;9.170;2023-04-01T15:46:26;10.70;99.90
39621;DHT22;25309;48.686;9.170;2023-04-01T15:49:09;10.70;99.90
39621;DHT22;25309;48.686;9.170;2023-04-01T15:51:48;10.70;99.90
39621;DHT22;25309;48.686;9.170;2023-04-01T15:54:31;10.70;99.90
39621;DHT22;25309;48.686;9.170;2023-04-01T15:57:15;10.60;99.90
39621;DHT22;25309;48.686;9.170;2023-04-01T16:00:06;10.60;99.90
39621;DHT22;25309;48.686;9.170;2023-04-01T16:02:44;10.60;99.90
39621;DHT22;25309;48.686;9.170;2023-04-01T16:05:26;10.50;99.90
39621;DHT22;25309;48.686;9.170;2023-04-01T16:08:07;10.50;99.90
39621;DHT22;25309;48.686;9.170;2023-04-01T16:10:48;10.30;99.90
39621;DHT22;25309;48.686;9.170;2023-04-01T16:13:37;10.20;99.90
39621;DHT22;25309;48.686;9.170;2023-04-01T16:16:19;10.20;99.90
39621;DHT22;25309;48.686;9.170;2023-04-01T16:19:01;10.20;99.90
39621;DHT22;25309;48.686;9.170;2023-04-01T16:21:37;10.20;99.90
39621;DHT22;25309;48.686;9.170;2023-04-01T16:24:13;10.20;99.90
39621;DHT22;25309;48.686;9.170;2023-04-01T16:26:47;10.20;99.90
39621;DHT22;25309;48.686;9.170;2023-04-01T16:29:24;10.20;99.90
39621;DHT22;25309;48.686;9.170;2023-04-01T16:31:57;10.20;99.90
39621;DHT22;25309;48.686;9.170;2023-04-01T16:34:31;10.20;99.90
39621;DHT22;25309;48.686;9.170;2023-04-01T16:37:05;10.30;99.90
39621;DHT22;25309;48.686;9.170;2023-04-01T16:39:37;10.30;99.90
39621;DHT22;25309;48.686;9.170;2023-04-01T16:42:24;10.30;99.90
39621;DHT22;25309;48.686;9.170;2023-04-01T16:44:59;10.30;99.90
39621;DHT22;25309;48.686;9.170;2023-04-01T16:47:30;10.30;99.90
39621;DHT22;25309;48.686;9.170;2023-04-01T16:50:00;10.30;99.90
39621;DHT22;25309;48.686;9.170;2023-04-01T16:52:42;10.30;99.90
39621;DHT22;25309;48.686;9.170;2023-04-01T16:55:15;10.30;99.90
39621;DHT22;25309;48.686;9.170;2023-04-01T16:57:46;10.30;99.90
39621;DHT22;25309;48.686;9.170;2023-04-01T17:00:23;10.30;99.90
39621;DHT22;25309;48.686;9.170;2023-04-01T17:03:02;10.30;99.90
39621;DHT22;25309;48.686;9.170;2023-04-01T17:05:44;10.30;99.90
39621;DHT22;25309;48.686;9.170;2023-04-01T17:08:20;10.30;99.90
39621;DHT22;25309;48.686;9.170;2023-04-01T17:10:52;10.30;99.90
39621;DHT22;25309;48.686;9.170;2023-04-01T17:13:40;10.20;99.90
39621;DHT22;25309;48.686;9.170;2023-04-01T17:19:06;10.20;99.90
39621;DHT22;25309;48.686;9.170;2023-04-01T17:21:47;10.10;99.90
39621;DHT22;25309;48.686;9.170;2023-04-01T17:24:32;10.10;99.90
39621;DHT22;25309;48.686;9.170;2023-04-01T17:27:11;10.10;99.90
39621;DHT22;25309;48.686;9.170;2023-04-01T17:29:56;10.00;99.90
39621;DHT22;25309;48.686;9.170;2023-04-01T17:32:37;10.00;99.90
39621;DHT22;25309;48.686;9.170;2023-04-01T17:35:11;10.00;99.90
39621;DHT22;25309;48.686;9.170;2023-04-01T17:37:48;9.90;99.90
39621;DHT22;25309;48.686;9.170;2023-04-01T17:40:37;9.90;99.90
39621;DHT22;25309;48.686;9.170;2023-04-01T17:43:14;9.80;99.90
39621;DHT22;25309;48.686;9.170;2023-04-01T17:45:45;9.80;99.90
39621;DHT22;25309;48.686;9.170;2023-04-01T17:48:24;9.80;99.90
39621;DHT22;25309;48.686;9.170;2023-04-01T17:51:07;9.80;99.90
39621;DHT22;25309;48.686;9.170;2023-04-01T17:53:43;9.80;99.90
39621;DHT22;25309;48.686;9.170;2023-04-01T17:56:41;9.70;99.90
39621;DHT22;25309;48.686;9.170;2023-04-01T17:59:20;9.70;99.90
39621;DHT22;25309;48.686;9.170;2023-04-01T18:01:55;9.70;99.90
39621;DHT22;25309;48.686;9.170;2023-04-01T18:04:40;9.70;99.90
39621;DHT22;25309;48.686;9.170;2023-04-01T18:07:38;9.70;99.90
39621;DHT22;25309;48.686;9.170;2023-04-01T18:10:21;9.70;99.90
39621;DHT22;25309;48.686;9.170;2023-04-01T18:15:47;9.70;99.90
39621;DHT22;25309;48.686;9.170;2023-04-01T18:18:35;9.70;99.90
39621;DHT22;25309;48.686;9.170;2023-04-01T18:21:12;9.80;99.90
39621;DHT22;25309;48.686;9.170;2023-04-01T18:23:46;9.80;99.90
39621;DHT22;25309;48.686;9.170;2023-04-01T18:26:30;9.70;99.90
39621;DHT22;25309;48.686;9.170;2023-04-01T18:28:59;9.60;99.90
39621;DHT22;25309;48.686;9.170;2023-04-01T18:31:34;9.50;99.90
39621;DHT22;25309;48.686;9.170;2023-04-01T18:34:07;9.40;99.90
39621;DHT22;25309;48.686;9.170;2023-04-01T18:36:44;9.30;99.90
39621;DHT22;25309;48.686;9.170;2023-04-01T18:39:14;9.20;99.90
39621;DHT22;25309;48.686;9.170;2023-04-01T18:41:51;9.20;99.90
39621;DHT22;25309;48.686;9.170;2023-04-01T18:44:29;9.10;99.90
39621;DHT22;25309;48.686;9.170;2023-04-01T18:47:03;9.10;99.90
39621;DHT22;25309;48.686;9.170;2023-04-01T18:49:40;9.10;99.90
39621;DHT22;25309;48.686;9.170;2023-04-01T18:52:16;9.10;99.90
39621;DHT22;25309;48.686;9.170;2023-04-01T18:54:49;9.00;99.90
39621;DHT22;25309;48.686;9.170;2023-04-01T18:57:20;9.00;99.90
39621;DHT22;25309;48.686;9.170;2023-04-01T18:59:51;8.90;99.90
39621;DHT22;25309;48.686;9.170;2023-04-01T19:02:29;8.90;99.90
39621;DHT22;25309;48.686;9.170;2023-04-01T19:05:03;8.80;99.90
39621;DHT22;25309;48.686;9.170;2023-04-01T19:07:46;8.80;99.90
39621;DHT22;25309;48.686;9.170;2023-04-01T19:10:17;8.70;99.90
39621;DHT22;25309;48.686;9.170;2023-04-01T19:12:57;8.70;99.90
39621;DHT22;25309;48.686;9.170;2023-04-01T19:15:33;8.60;99.90
39621;DHT22;25309;48.686;9.170;2023-04-01T19:18:31;8.50;99.90
39621;DHT22;25309;48.686;9.170;2023-04-01T19:21:10;8.50;99.90
39621;DHT22;25309;48.686;9.170;2023-04-01T19:24:17;8.40;99.90
39621;DHT22;25309;48.686;9.170;2023-04-01T19:26:54;8.30;99.90
39621;DHT22;25309;48.686;9.170;2023-04-01T19:29:36;8.30;99.90
39621;DHT22;25309;48.686;9.170;2023-04-01T19:32:14;8.20;99.90
39621;DHT22;25309;48.686;9.170;2023-04-01T19:34:54;8.20;99.90
39621;DHT22;25309;48.686;9.170;2023-04-01T19:37:31;8.10;99.90
39621;DHT22;25309;48.686;9.170;2023-04-01T19:40:08;8.10;99.90
39621;DHT22;25309;48.686;9.170;2023-04-01T19:42:47;8.10;99.90
39621;DHT22;25309;48.686;9.170;2023-04-01T19:45:29;8.10;99.90
39621;DHT22;25309;48.686;9.170;2023-04-01T19:48:08;8.10;99.90
39621;DHT22;25309;48.686;9.170;2023-04-01T19:50:39;8.10;99.90
39621;DHT22;25309;48.686;9.170;2023-04-01T19:53:18;8.10;99.90
39621;DHT22;25309;48.686;9.170;2023-04-01T19:55:52;8.00;99.90
39621;DHT22;25309;48.686;9.170;2023-04-01T19:58:27;8.00;99.90
39621;DHT22;25309;48.686;9.170;2023-04-01T20:00:58;8.00;99.90
39621;DHT22;25309;48.686;9.170;2023-04-01T20:03:36;7.90;99.90
39621;DHT22;25309;48.686;9.170;2023-04-01T20:06:17;7.90;99.90
39621;DHT22;25309;48.686;9.170;2023-04-01T20:08:51;7.80;99.90
39621;DHT22;25309;48.686;9.170;2023-04-01T20:11:30;7.80;99.90
39621;DHT22;25309;48.686;9.170;2023-04-01T20:14:09;7.80;99.90
39621;DHT22;25309;48.686;9.170;2023-04-01T20:17:01;7.80;99.90
39621;DHT22;25309;48.686;9.170;2023-04-01T20:19:34;7.80;99.90
39621;DHT22;25309;48.686;9.170;2023-04-01T20:22:05;7.80;99.90
39621;DHT22;25309;48.686;9.170;2023-04-01T20:24:41;7.70;99.90
39621;DHT22;25309;48.686;9.170;2023-04-01T20:27:15;7.70;99.90
39621;DHT22;25309;48.686;9.170;2023-04-01T20:30:04;7.70;99.90
39621;DHT22;25309;48.686;9.170;2023-04-01T20:32:50;7.70;99.90
39621;DHT22;25309;48.686;9.170;2023-04-01T20:35:37;7.80;99.90
39621;DHT22;25309;48.686;9.170;2023-04-01T20:38:21;7.80;99.90
39621;DHT22;25309;48.686;9.170;2023-04-01T20:40:51;7.80;99.90
39621;DHT22;25309;48.686;9.170;2023-04-01T20:43:42;7.80;99.90
39621;DHT22;25309;48.686;9.170;2023-04-01T20:46:19;7.80;99.90
39621;DHT22;25309;48.686;9.170;2023-04-01T20:49:24;7.90;99.90
39621;DHT22;25309;48.686;9.170;2023-04-01T20:51:54;7.90;99.90
39621;DHT22;25309;48.686;9.170;2023-04-01T20:54:34;7.90;99.90
39621;DHT22;25309;48.686;9.170;2023-04-01T20:57:06;7.80;99.90
39621;DHT22;25309;48.686;9.170;2023-04-01T20:59:55;7.80;99.90
39621;DHT22;25309;48.686;9.170;2023-04-01T21:02:43;7.90;99.90